Time;durP1;ratioP1;P1;durP2;ratioP2;P2;SDS_P1;SDS_P2;PMS_P1;PMS_P2;Temp;Humidity;BMP_temperature;BMP_pressure;BME280_temperature;BME280_humidity;BME280_pressure;Samples;Min_cycle;Max_cycle;Signal;HPM_P1;HPM_P2
2024/03/04 00:03:23;;;;;;;4.55;1.92;;;;;;;;;;10402689;28;20053;-57
2024/03/04 00:08:24;;;;;;;5.28;1.98;;;;;;;;;;10407788;28;20041;-59
2024/03/04 00:13:24;;;;;;;2.42;1.35;;;;;;;;;;10408037;28;20473;-61
2024/03/04 00:18:25;;;;;;;6.50;2.15;;;;;;;;;;10409001;28;20103;-60
2024/03/04 00:23:26;;;;;;;4.00;1.75;;;;;;;;;;10416284;28;20161;-60
2024/03/04 00:28:26;;;;;;;6.45;1.55;;;;;;;;;;10416530;28;20133;-58
2024/03/04 00:33:27;;;;;;;7.25;2.03;;;;;;;;;;10416281;28;20028;-60
2024/03/04 00:38:27;;;;;;;2.50;1.58;;;;;;;;;;10416042;28;20461;-58
2024/03/04 00:43:28;;;;;;;6.72;1.92;;;;;;;;;;10415519;28;20021;-60
2024/03/04 00:48:29;;;;;;;3.33;1.73;;;;;;;;;;10415220;28;20492;-60
2024/03/04 00:53:29;;;;;;;3.35;1.48;;;;;;;;;;10415624;28;20022;-60
2024/03/04 00:58:30;;;;;;;2.28;1.10;;;;;;;;;;10415175;28;20076;-60
2024/03/04 01:03:31;;;;;;;3.30;1.60;;;;;;;;;;10414730;28;20044;-60
2024/03/04 01:08:32;;;;;;;3.35;1.65;;;;;;;;;;10415000;28;20044;-59
2024/03/04 01:13:33;;;;;;;3.50;1.15;;;;;;;;;;10414182;28;20367;-60
2024/03/04 01:18:33;;;;;;;5.28;1.63;;;;;;;;;;10415003;28;20034;-60
2024/03/04 01:23:34;;;;;;;1.50;1.40;;;;;;;;;;10413942;28;20060;-60
2024/03/04 01:28:34;;;;;;;8.70;1.63;;;;;;;;;;10413689;28;20030;-60
2024/03/04 01:33:36;;;;;;;5.07;1.50;;;;;;;;;;10412735;28;20029;-60
2024/03/04 01:38:37;;;;;;;2.60;1.63;;;;;;;;;;10413429;28;20070;-60
2024/03/04 01:43:38;;;;;;;5.13;1.73;;;;;;;;;;10413007;28;20025;-60
2024/03/04 01:48:39;;;;;;;6.13;2.10;;;;;;;;;;10412322;28;20021;-59
2024/03/04 01:53:41;;;;;;;3.13;1.48;;;;;;;;;;10413292;28;20044;-59
2024/03/04 01:58:47;;;;;;;1.67;1.40;;;;;;;;;;10413794;28;20117;-58
2024/03/04 02:03:48;;;;;;;7.45;1.38;;;;;;;;;;10411154;28;20558;-57
2024/03/04 02:08:49;;;;;;;5.72;1.60;;;;;;;;;;10411150;28;20038;-59
2024/03/04 02:13:50;;;;;;;2.97;1.40;;;;;;;;;;10412598;28;20060;-59
2024/03/04 02:18:52;;;;;;;3.53;1.50;;;;;;;;;;10411447;28;20132;-57
2024/03/04 02:23:53;;;;;;;2.00;1.20;;;;;;;;;;10411739;28;20392;-59
2024/03/04 02:28:53;;;;;;;3.70;1.90;;;;;;;;;;10411925;28;20037;-58
2024/03/04 02:33:54;;;;;;;4.50;1.52;;;;;;;;;;10411766;28;20033;-58
2024/03/04 02:38:55;;;;;;;1.83;1.50;;;;;;;;;;10411697;28;20054;-56
2024/03/04 02:43:55;;;;;;;3.72;1.40;;;;;;;;;;10410836;28;20454;-59
2024/03/04 02:48:56;;;;;;;4.95;1.45;;;;;;;;;;10410887;28;20033;-60
2024/03/04 02:53:57;;;;;;;2.00;1.10;;;;;;;;;;10410351;28;20026;-58
2024/03/04 02:58:58;;;;;;;4.00;1.50;;;;;;;;;;10410454;28;20169;-60
2024/03/04 03:03:58;;;;;;;4.53;1.70;;;;;;;;;;10409872;28;20099;-59
2024/03/04 03:09:00;;;;;;;2.58;1.33;;;;;;;;;;10408709;28;20095;-59
2024/03/04 03:14:02;;;;;;;3.20;1.27;;;;;;;;;;10410160;28;20047;-60
2024/03/04 03:19:03;;;;;;;5.57;1.30;;;;;;;;;;10410088;28;20053;-59
2024/03/04 03:24:05;;;;;;;2.92;1.20;;;;;;;;;;10409457;28;20021;-61
2024/03/04 03:29:05;;;;;;;1.42;1.20;;;;;;;;;;10410280;28;20045;-60
2024/03/04 03:34:06;;;;;;;2.00;1.30;;;;;;;;;;10409030;28;20029;-60
2024/03/04 03:39:09;;;;;;;2.08;1.33;;;;;;;;;;10408832;28;20029;-60
2024/03/04 03:44:10;;;;;;;1.23;1.10;;;;;;;;;;10408682;28;20444;-59
2024/03/04 03:49:12;;;;;;;2.05;1.30;;;;;;;;;;10409613;28;20029;-60
2024/03/04 03:54:13;;;;;;;1.73;1.17;;;;;;;;;;10407550;28;20029;-60
2024/03/04 03:59:13;;;;;;;2.65;1.02;;;;;;;;;;10408494;28;20021;-61
2024/03/04 04:04:14;;;;;;;2.03;1.17;;;;;;;;;;10408045;28;20044;-60
2024/03/04 04:09:15;;;;;;;1.90;1.00;;;;;;;;;;10408621;28;20037;-60
2024/03/04 04:14:16;;;;;;;1.30;1.20;;;;;;;;;;10407927;28;20021;-60
2024/03/04 04:19:16;;;;;;;3.72;1.30;;;;;;;;;;10408313;28;20029;-54
2024/03/04 04:24:17;;;;;;;2.15;1.20;;;;;;;;;;10407823;28;20022;-57
2024/03/04 04:29:17;;;;;;;1.30;1.20;;;;;;;;;;10408167;28;20064;-59
2024/03/04 04:34:18;;;;;;;1.55;1.17;;;;;;;;;;10407611;28;20030;-59
2024/03/04 04:39:19;;;;;;;1.05;1.00;;;;;;;;;;10407635;28;20017;-59
2024/03/04 04:44:19;;;;;;;1.23;1.02;;;;;;;;;;10407325;28;20048;-59
2024/03/04 04:49:20;;;;;;;3.95;1.67;;;;;;;;;;10408432;28;20033;-60
2024/03/04 04:54:20;;;;;;;2.05;0.88;;;;;;;;;;10407647;28;20185;-59
2024/03/04 04:59:21;;;;;;;2.35;1.20;;;;;;;;;;10407788;28;20033;-57
2024/03/04 05:04:21;;;;;;;1.52;1.05;;;;;;;;;;10408414;28;20053;-59
2024/03/04 05:09:22;;;;;;;3.17;1.02;;;;;;;;;;10414740;28;20033;-61
2024/03/04 05:14:23;;;;;;;2.15;1.10;;;;;;;;;;10415098;28;20032;-59
2024/03/04 05:19:27;;;;;;;2.47;1.05;;;;;;;;;;10414406;28;20033;-60
2024/03/04 05:24:28;;;;;;;1.70;1.27;;;;;;;;;;10414706;28;20039;-57
2024/03/04 05:29:29;;;;;;;2.78;1.33;;;;;;;;;;10413929;28;20030;-60
2024/03/04 05:34:29;;;;;;;1.55;1.05;;;;;;;;;;10414063;28;20049;-59
2024/03/04 05:39:31;;;;;;;2.35;1.15;;;;;;;;;;10413559;28;20068;-58
2024/03/04 05:44:31;;;;;;;1.33;1.20;;;;;;;;;;10413843;28;20036;-60
2024/03/04 05:49:33;;;;;;;2.15;1.20;;;;;;;;;;10413120;28;20037;-59
2024/03/04 05:54:34;;;;;;;2.78;1.27;;;;;;;;;;10412918;28;20480;-59
2024/03/04 05:59:37;;;;;;;1.17;1.02;;;;;;;;;;10413430;28;20033;-60
2024/03/04 06:04:37;;;;;;;2.10;1.10;;;;;;;;;;10412637;28;20104;-59
2024/03/04 06:09:38;;;;;;;2.42;1.33;;;;;;;;;;10412819;28;20479;-58
2024/03/04 06:14:39;;;;;;;2.28;0.93;;;;;;;;;;10412932;28;20040;-59
2024/03/04 06:19:39;;;;;;;2.90;1.20;;;;;;;;;;10411339;28;20022;-59
2024/03/04 06:24:40;;;;;;;1.10;1.00;;;;;;;;;;10412245;28;20075;-59
2024/03/04 06:29:41;;;;;;;1.55;1.00;;;;;;;;;;10411481;28;20029;-59
2024/03/04 06:34:41;;;;;;;1.15;1.00;;;;;;;;;;10409641;28;20022;-61
2024/03/04 06:39:44;;;;;;;1.55;1.45;;;;;;;;;;10410523;28;20032;-61
2024/03/04 06:44:44;;;;;;;2.10;1.30;;;;;;;;;;10409155;28;20022;-57
2024/03/04 06:49:45;;;;;;;2.30;1.13;;;;;;;;;;10410636;28;20026;-58
2024/03/04 06:54:49;;;;;;;2.67;1.17;;;;;;;;;;10409992;28;20025;-60
2024/03/04 06:59:50;;;;;;;10.60;1.40;;;;;;;;;;10409283;28;20390;-60
2024/03/04 07:04:50;;;;;;;6.85;1.40;;;;;;;;;;10409941;28;20045;-60
2024/03/04 07:09:51;;;;;;;4.80;1.23;;;;;;;;;;10409659;28;20036;-58
2024/03/04 07:14:51;;;;;;;24.13;1.88;;;;;;;;;;10407734;28;20041;-57
2024/03/04 07:19:52;;;;;;;3.72;1.65;;;;;;;;;;10408699;28;20030;-59
2024/03/04 07:24:52;;;;;;;11.38;1.65;;;;;;;;;;10408874;28;20029;-59
2024/03/04 07:29:53;;;;;;;13.02;1.65;;;;;;;;;;10409380;28;20487;-60
2024/03/04 07:34:54;;;;;;;9.68;1.85;;;;;;;;;;10409795;28;20029;-59
2024/03/04 07:39:54;;;;;;;7.47;1.55;;;;;;;;;;10408889;28;20026;-59
2024/03/04 07:44:55;;;;;;;5.07;1.58;;;;;;;;;;10408499;28;20022;-59
2024/03/04 07:49:57;;;;;;;5.10;1.50;;;;;;;;;;10409500;28;20041;-60
2024/03/04 07:54:58;;;;;;;4.28;2.15;;;;;;;;;;10408691;28;20589;-59
2024/03/04 07:59:58;;;;;;;7.35;1.70;;;;;;;;;;10408775;28;20022;-60
2024/03/04 08:04:59;;;;;;;3.33;1.27;;;;;;;;;;10408032;28;20103;-59
2024/03/04 08:10:00;;;;;;;3.28;1.40;;;;;;;;;;10409036;28;20052;-60
2024/03/04 08:15:02;;;;;;;4.60;1.85;;;;;;;;;;10408036;28;20025;-59
2024/03/04 08:20:04;;;;;;;3.63;1.80;;;;;;;;;;10407979;28;20061;-60
2024/03/04 08:25:06;;;;;;;4.65;1.92;;;;;;;;;;10408013;28;20053;-60
2024/03/04 08:30:09;;;;;;;8.18;1.58;;;;;;;;;;10408035;28;20045;-58
2024/03/04 08:35:09;;;;;;;5.60;1.48;;;;;;;;;;10408132;28;20037;-59
2024/03/04 08:40:12;;;;;;;6.25;1.60;;;;;;;;;;10410320;28;20037;-60
2024/03/04 08:45:14;;;;;;;3.50;1.38;;;;;;;;;;10416122;28;20044;-60
2024/03/04 08:50:14;;;;;;;3.08;1.52;;;;;;;;;;10415317;28;20030;-60
2024/03/04 08:55:15;;;;;;;2.30;1.38;;;;;;;;;;10415727;28;20022;-60
2024/03/04 09:00:16;;;;;;;3.20;1.42;;;;;;;;;;10415187;28;20504;-60
2024/03/04 09:05:17;;;;;;;5.47;1.70;;;;;;;;;;10414794;28;20041;-60
2024/03/04 09:10:18;;;;;;;4.18;1.48;;;;;;;;;;10414567;28;20032;-60
2024/03/04 09:15:20;;;;;;;7.57;2.00;;;;;;;;;;10414682;28;20072;-60
2024/03/04 09:20:20;;;;;;;2.65;1.40;;;;;;;;;;10414920;28;20061;-60
2024/03/04 09:25:21;;;;;;;3.58;1.48;;;;;;;;;;10413943;28;20057;-59
2024/03/04 09:30:23;;;;;;;2.85;1.65;;;;;;;;;;10413914;28;20025;-58
2024/03/04 09:35:23;;;;;;;6.15;1.98;;;;;;;;;;10412679;28;20049;-59
2024/03/04 09:40:24;;;;;;;7.95;2.00;;;;;;;;;;10414037;28;20076;-59
2024/03/04 09:45:26;;;;;;;2.60;1.50;;;;;;;;;;10413843;28;20030;-59
2024/03/04 09:50:27;;;;;;;3.28;1.90;;;;;;;;;;10411078;28;20480;-59
2024/03/04 09:55:27;;;;;;;3.20;1.63;;;;;;;;;;10411328;28;20189;-60
2024/03/04 10:00:29;;;;;;;6.65;1.85;;;;;;;;;;10413053;28;20021;-57
2024/03/04 10:05:30;;;;;;;4.38;1.60;;;;;;;;;;10411313;28;20053;-59
2024/03/04 10:10:31;;;;;;;2.58;1.30;;;;;;;;;;10412175;28;20386;-59
2024/03/04 10:15:34;;;;;;;6.63;1.75;;;;;;;;;;10412200;28;20026;-55
2024/03/04 10:20:35;;;;;;;5.15;1.70;;;;;;;;;;10411408;28;20030;-59
2024/03/04 10:25:35;;;;;;;4.20;1.60;;;;;;;;;;10412188;28;20022;-59
2024/03/04 10:30:36;;;;;;;4.07;1.67;;;;;;;;;;10412005;28;20381;-60
2024/03/04 10:35:36;;;;;;;5.00;1.65;;;;;;;;;;10411427;28;20048;-58
2024/03/04 10:40:37;;;;;;;3.72;1.55;;;;;;;;;;10411573;28;20031;-59
2024/03/04 10:45:39;;;;;;;3.17;1.25;;;;;;;;;;10410966;28;20099;-59
2024/03/04 10:50:40;;;;;;;2.83;1.50;;;;;;;;;;10410048;28;20044;-60
2024/03/04 10:55:40;;;;;;;8.20;1.83;;;;;;;;;;10410946;28;20048;-59
2024/03/04 11:00:41;;;;;;;2.85;1.50;;;;;;;;;;10410688;28;20025;-55
2024/03/04 11:05:50;;;;;;;3.33;1.60;;;;;;;;;;10409996;28;20485;-59
2024/03/04 11:11:07;;;;;;;5.32;1.80;;;;;;;;;;10409485;28;20033;-60
2024/03/04 11:16:20;;;;;;;2.73;1.70;;;;;;;;;;10409778;28;20037;-59
2024/03/04 11:21:21;;;;;;;2.92;1.30;;;;;;;;;;10408764;28;20022;-60
2024/03/04 11:26:23;;;;;;;2.92;1.20;;;;;;;;;;10410053;28;20135;-60
2024/03/04 11:31:28;;;;;;;4.65;1.73;;;;;;;;;;10409785;28;20120;-60
2024/03/04 11:36:29;;;;;;;4.05;1.35;;;;;;;;;;10409258;28;20486;-59
2024/03/04 11:41:48;;;;;;;2.92;1.42;;;;;;;;;;10409187;28;20109;-53
2024/03/04 11:46:49;;;;;;;2.05;1.15;;;;;;;;;;10409283;28;20030;-53
2024/03/04 11:52:06;;;;;;;2.13;1.30;;;;;;;;;;10408802;28;20033;-55
2024/03/04 11:57:08;;;;;;;3.22;1.30;;;;;;;;;;10408633;28;20048;-54
2024/03/04 12:02:10;;;;;;;4.57;1.40;;;;;;;;;;10409484;28;20021;-52
2024/03/04 12:07:10;;;;;;;1.83;1.60;;;;;;;;;;10409229;28;20177;-54
2024/03/04 12:12:13;;;;;;;2.85;1.63;;;;;;;;;;10408646;28;20169;-53
2024/03/04 12:17:15;;;;;;;1.77;1.40;;;;;;;;;;10407681;28;20353;-53
2024/03/04 12:22:16;;;;;;;2.03;1.27;;;;;;;;;;10407919;28;20400;-53
2024/03/04 12:27:19;;;;;;;5.13;1.58;;;;;;;;;;10407944;28;20036;-53
2024/03/04 12:32:20;;;;;;;2.70;1.35;;;;;;;;;;10408070;28;20033;-55
2024/03/04 12:37:23;;;;;;;2.22;1.50;;;;;;;;;;10406933;28;20026;-54
2024/03/04 12:42:23;;;;;;;3.45;1.75;;;;;;;;;;10408426;28;20037;-56
2024/03/04 12:47:24;;;;;;;2.10;1.30;;;;;;;;;;10408078;28;20034;-53
2024/03/04 12:52:25;;;;;;;1.88;1.15;;;;;;;;;;10407286;28;20033;-53
2024/03/04 12:57:26;;;;;;;4.95;1.50;;;;;;;;;;10407147;28;20025;-54
2024/03/04 13:02:26;;;;;;;2.97;1.23;;;;;;;;;;10407025;28;20036;-56
2024/03/04 13:07:27;;;;;;;1.80;1.40;;;;;;;;;;10408252;28;20022;-54
2024/03/04 13:12:27;;;;;;;3.42;1.40;;;;;;;;;;10405725;28;20029;-53
2024/03/04 13:17:28;;;;;;;7.65;1.60;;;;;;;;;;10407245;28;20496;-53
2024/03/04 13:22:28;;;;;;;3.47;1.35;;;;;;;;;;10406870;28;20485;-58
2024/03/04 13:27:29;;;;;;;2.25;1.48;;;;;;;;;;10411406;28;20404;-55
2024/03/04 13:32:30;;;;;;;2.70;1.52;;;;;;;;;;10413992;28;20033;-59
2024/03/04 13:37:31;;;;;;;3.42;1.30;;;;;;;;;;10413166;28;20030;-50
2024/03/04 13:42:31;;;;;;;1.75;1.27;;;;;;;;;;10414071;28;20393;-54
2024/03/04 13:47:32;;;;;;;2.17;1.27;;;;;;;;;;10413842;28;20497;-51
2024/03/04 13:52:33;;;;;;;5.32;1.30;;;;;;;;;;10412252;28;20037;-51
2024/03/04 13:57:34;;;;;;;4.43;1.42;;;;;;;;;;10412870;28;20053;-48
2024/03/04 14:02:34;;;;;;;2.30;1.17;;;;;;;;;;10410600;28;20473;-51
2024/03/04 14:07:35;;;;;;;3.72;1.45;;;;;;;;;;10412111;28;20499;-53
2024/03/04 14:12:36;;;;;;;2.78;1.35;;;;;;;;;;10411994;28;20523;-48
2024/03/04 14:17:38;;;;;;;4.20;1.67;;;;;;;;;;10412319;28;20033;-53
2024/03/04 14:22:38;;;;;;;1.30;1.20;;;;;;;;;;10411104;28;20481;-54
2024/03/04 14:27:39;;;;;;;1.80;1.25;;;;;;;;;;10411851;28;20025;-52
2024/03/04 14:32:40;;;;;;;8.15;1.50;;;;;;;;;;10411801;28;20112;-50
2024/03/04 14:37:41;;;;;;;3.28;1.15;;;;;;;;;;10409172;28;20059;-52
2024/03/04 14:42:43;;;;;;;2.97;1.50;;;;;;;;;;10409863;28;20041;-52
2024/03/04 14:47:47;;;;;;;2.55;1.35;;;;;;;;;;10410599;28;20443;-54
2024/03/04 14:52:47;;;;;;;3.33;1.25;;;;;;;;;;10411008;28;20197;-51
2024/03/04 14:57:48;;;;;;;1.20;1.10;;;;;;;;;;10410376;28;20192;-52
2024/03/04 15:02:51;;;;;;;5.65;1.38;;;;;;;;;;10410329;28;20088;-51
2024/03/04 15:07:51;;;;;;;1.38;1.25;;;;;;;;;;10410126;28;20048;-49
2024/03/04 15:12:52;;;;;;;2.25;1.40;;;;;;;;;;10410732;28;20029;-52
2024/03/04 15:17:53;;;;;;;2.75;1.33;;;;;;;;;;10409765;28;20036;-51
2024/03/04 15:22:53;;;;;;;2.05;1.10;;;;;;;;;;10409233;28;20032;-50
2024/03/04 15:27:54;;;;;;;3.67;1.50;;;;;;;;;;10409480;28;20037;-49
2024/03/04 15:32:55;;;;;;;3.70;1.52;;;;;;;;;;10409189;28;20496;-49
2024/03/04 15:37:55;;;;;;;3.03;1.40;;;;;;;;;;10409055;28;20022;-53
2024/03/04 15:42:56;;;;;;;1.30;1.05;;;;;;;;;;10408955;28;20025;-49
2024/03/04 15:47:56;;;;;;;3.05;1.83;;;;;;;;;;10409206;28;20173;-52
2024/03/04 15:52:57;;;;;;;1.95;1.27;;;;;;;;;;10407773;28;20025;-52
2024/03/04 15:57:57;;;;;;;2.50;1.50;;;;;;;;;;10408891;28;20140;-49
2024/03/04 16:02:58;;;;;;;1.80;1.30;;;;;;;;;;10407533;28;20048;-53
2024/03/04 16:07:59;;;;;;;2.00;1.10;;;;;;;;;;10407575;28;20025;-52
2024/03/04 16:12:59;;;;;;;3.10;1.42;;;;;;;;;;10408046;28;20029;-48
2024/03/04 16:18:00;;;;;;;7.72;1.30;;;;;;;;;;10407357;28;20029;-49
2024/03/04 16:23:00;;;;;;;1.80;1.20;;;;;;;;;;10406429;28;20033;-49
2024/03/04 16:28:01;;;;;;;2.75;1.33;;;;;;;;;;10407151;28;20524;-49
2024/03/04 16:33:04;;;;;;;3.65;1.38;;;;;;;;;;10408205;28;20358;-48
2024/03/04 16:38:04;;;;;;;2.05;1.23;;;;;;;;;;10408300;28;20044;-50
2024/03/04 16:43:05;;;;;;;2.72;1.25;;;;;;;;;;10408058;28;20498;-52
2024/03/04 16:48:06;;;;;;;2.25;1.50;;;;;;;;;;10408552;28;20056;-53
2024/03/04 16:53:06;;;;;;;2.47;1.40;;;;;;;;;;10407922;28;20032;-52
2024/03/04 16:58:07;;;;;;;3.80;1.70;;;;;;;;;;10407198;28;20072;-52
2024/03/04 17:03:09;;;;;;;2.47;1.40;;;;;;;;;;10414308;28;20073;-51
2024/03/04 17:08:12;;;;;;;2.85;1.42;;;;;;;;;;10422487;28;20025;-49
2024/03/04 17:13:15;;;;;;;4.45;1.38;;;;;;;;;;10421743;28;20025;-53
2024/03/04 17:18:16;;;;;;;3.50;1.40;;;;;;;;;;10421580;28;20381;-49
2024/03/04 17:23:39;;;;;;;2.92;1.52;;;;;;;;;;10421277;28;20088;-53
2024/03/04 17:28:41;;;;;;;1.65;1.33;;;;;;;;;;10295655;28;20053;-51
2024/03/04 17:33:43;;;;;;;5.13;1.20;;;;;;;;;;10295375;28;20042;-51
2024/03/04 17:38:45;;;;;;;3.95;1.60;;;;;;;;;;10295122;28;20614;-54
2024/03/04 17:43:46;;;;;;;2.92;1.40;;;;;;;;;;10294640;28;20039;-51
2024/03/04 17:48:48;;;;;;;1.95;1.60;;;;;;;;;;10294587;28;20031;-52
2024/03/04 17:53:50;;;;;;;3.70;1.50;;;;;;;;;;10294597;28;20076;-52
2024/03/04 17:58:51;;;;;;;2.63;1.73;;;;;;;;;;10294616;28;20070;-53
2024/03/04 18:03:53;;;;;;;5.30;1.55;;;;;;;;;;10343152;28;20088;-52
2024/03/04 18:08:55;;;;;;;3.25;1.48;;;;;;;;;;10420256;28;20033;-51
2024/03/04 18:13:57;;;;;;;3.55;1.50;;;;;;;;;;10418303;28;20102;-53
2024/03/04 18:18:58;;;;;;;4.00;1.70;;;;;;;;;;10420029;28;20026;-52
2024/03/04 18:24:00;;;;;;;3.72;1.40;;;;;;;;;;10419439;28;20469;-53
2024/03/04 18:29:02;;;;;;;2.15;1.50;;;;;;;;;;10419380;28;20037;-52
2024/03/04 18:34:04;;;;;;;1.42;1.30;;;;;;;;;;10418635;28;20056;-53
2024/03/04 18:39:06;;;;;;;3.33;1.42;;;;;;;;;;10418314;28;20029;-51
2024/03/04 18:44:08;;;;;;;3.55;1.58;;;;;;;;;;10418817;28;20029;-52
2024/03/04 18:49:09;;;;;;;5.47;1.70;;;;;;;;;;10418037;28;20033;-56
2024/03/04 18:54:17;;;;;;;2.60;1.73;;;;;;;;;;10417890;28;20057;-57
2024/03/04 18:59:18;;;;;;;2.97;1.40;;;;;;;;;;10417789;28;20125;-54
2024/03/04 19:04:20;;;;;;;2.45;1.60;;;;;;;;;;10417288;28;20048;-57
2024/03/04 19:09:21;;;;;;;3.20;1.65;;;;;;;;;;10417297;28;20488;-54
2024/03/04 19:14:23;;;;;;;1.63;1.48;;;;;;;;;;10416980;28;20030;-57
2024/03/04 19:19:25;;;;;;;3.38;1.60;;;;;;;;;;10417512;28;20052;-58
2024/03/04 19:24:26;;;;;;;2.97;1.70;;;;;;;;;;10416458;28;20045;-57
2024/03/04 19:29:29;;;;;;;2.50;1.40;;;;;;;;;;10417062;28;20096;-59
2024/03/04 19:34:30;;;;;;;2.70;1.60;;;;;;;;;;10416343;28;20029;-53
2024/03/04 19:39:32;;;;;;;2.65;1.75;;;;;;;;;;10416094;28;20091;-53
2024/03/04 19:44:34;;;;;;;5.13;1.67;;;;;;;;;;10415820;28;20038;-53
2024/03/04 19:49:35;;;;;;;4.20;2.10;;;;;;;;;;10415821;28;20037;-53
2024/03/04 19:54:37;;;;;;;3.40;1.67;;;;;;;;;;10415700;28;20404;-52
2024/03/04 19:59:39;;;;;;;2.03;1.83;;;;;;;;;;10415539;28;20087;-53
2024/03/04 20:04:41;;;;;;;3.28;2.13;;;;;;;;;;10415087;28;20072;-53
2024/03/04 20:09:42;;;;;;;4.57;2.08;;;;;;;;;;10415891;28;20030;-52
2024/03/04 20:14:44;;;;;;;6.45;2.30;;;;;;;;;;10415158;28;20096;-52
2024/03/04 20:19:46;;;;;;;4.93;2.67;;;;;;;;;;10415751;28;20066;-48
2024/03/04 20:24:47;;;;;;;3.40;2.47;;;;;;;;;;10413869;28;20076;-52
2024/03/04 20:29:48;;;;;;;5.60;3.10;;;;;;;;;;10414793;28;20083;-53
2024/03/04 20:34:49;;;;;;;6.72;2.92;;;;;;;;;;10414968;28;20487;-52
2024/03/04 20:39:51;;;;;;;5.22;3.00;;;;;;;;;;10423831;28;20053;-52
2024/03/04 20:44:53;;;;;;;5.07;3.13;;;;;;;;;;10423032;28;20112;-53
2024/03/04 20:49:54;;;;;;;5.00;2.83;;;;;;;;;;10423397;28;20044;-51
2024/03/04 20:54:57;;;;;;;6.05;2.97;;;;;;;;;;10422445;28;20087;-54
2024/03/04 20:59:58;;;;;;;4.43;2.88;;;;;;;;;;10422926;28;20033;-52
2024/03/04 21:05:00;;;;;;;4.60;3.15;;;;;;;;;;10421819;28;20038;-53
2024/03/04 21:10:02;;;;;;;3.58;2.90;;;;;;;;;;10422546;28;20029;-53
2024/03/04 21:15:05;;;;;;;7.97;3.35;;;;;;;;;;10421706;28;20029;-52
2024/03/04 21:20:13;;;;;;;6.32;2.80;;;;;;;;;;10421545;28;20380;-49
2024/03/04 21:25:16;;;;;;;6.70;3.22;;;;;;;;;;10421542;28;20025;-50
2024/03/04 21:30:19;;;;;;;6.72;2.78;;;;;;;;;;10420146;28;20029;-51
2024/03/04 21:35:21;;;;;;;3.50;2.25;;;;;;;;;;10421041;28;20104;-52
2024/03/04 21:40:23;;;;;;;5.75;2.95;;;;;;;;;;10420942;28;20026;-52
2024/03/04 21:45:24;;;;;;;6.43;2.90;;;;;;;;;;10421203;28;20025;-53
2024/03/04 21:50:26;;;;;;;6.13;3.05;;;;;;;;;;10419147;28;20029;-49
2024/03/04 21:55:27;;;;;;;4.60;2.80;;;;;;;;;;10420839;28;20461;-49
2024/03/04 22:00:29;;;;;;;5.65;2.30;;;;;;;;;;10420196;28;20026;-48
2024/03/04 22:05:30;;;;;;;6.65;2.92;;;;;;;;;;10419693;28;20049;-50
2024/03/04 22:10:32;;;;;;;5.60;2.50;;;;;;;;;;10419548;28;20060;-55
2024/03/04 22:15:34;;;;;;;5.53;2.97;;;;;;;;;;10419382;28;20021;-53
2024/03/04 22:20:36;;;;;;;7.72;2.70;;;;;;;;;;10419598;28;20030;-48
2024/03/04 22:25:37;;;;;;;5.70;2.50;;;;;;;;;;10419013;28;20025;-51
2024/03/04 22:30:39;;;;;;;9.88;2.58;;;;;;;;;;10418811;28;20029;-53
2024/03/04 22:35:41;;;;;;;8.25;2.60;;;;;;;;;;10419420;28;20116;-50
2024/03/04 22:40:49;;;;;;;6.93;3.05;;;;;;;;;;10418601;28;20061;-51
2024/03/04 22:45:51;;;;;;;4.30;2.40;;;;;;;;;;10418324;28;20533;-49
2024/03/04 22:50:52;;;;;;;3.05;2.42;;;;;;;;;;10418140;28;20037;-52
2024/03/04 22:55:55;;;;;;;4.03;2.20;;;;;;;;;;10417933;28;20504;-52
2024/03/04 23:00:56;;;;;;;5.70;2.30;;;;;;;;;;10417806;28;20033;-51
2024/03/04 23:05:58;;;;;;;4.00;2.78;;;;;;;;;;10417269;28;20041;-52
2024/03/04 23:11:01;;;;;;;4.80;2.30;;;;;;;;;;10417041;28;20056;-54
2024/03/04 23:16:07;;;;;;;2.78;2.20;;;;;;;;;;10417731;28;20071;-49
2024/03/04 23:21:09;;;;;;;3.78;2.55;;;;;;;;;;10417027;28;20465;-50
2024/03/04 23:26:10;;;;;;;3.28;2.20;;;;;;;;;;10417362;28;20021;-52
2024/03/04 23:31:12;;;;;;;3.33;2.13;;;;;;;;;;10417179;28;20041;-52
2024/03/04 23:36:13;;;;;;;6.40;2.40;;;;;;;;;;10416933;28;20036;-52
2024/03/04 23:41:16;;;;;;;4.03;2.47;;;;;;;;;;10416216;28;20100;-51
2024/03/04 23:46:18;;;;;;;5.63;2.50;;;;;;;;;;10415815;28;20099;-52
2024/03/04 23:51:22;;;;;;;4.93;2.40;;;;;;;;;;10415880;28;20125;-51
2024/03/04 23:56:24;;;;;;;3.00;2.10;;;;;;;;;;10415542;28;20034;-52
